This is the latest recevied weather packets stored in our database for station/object K6LOT-13. If no packets are shown the sender has not sent any weather packets the latest 10 day(s).
| Time | Temp. | Humidity | Pressure | Rain* | Wind** | Luminosity | Snow |
|---|---|---|---|---|---|---|---|
| 1777501935 | 24.44° C | 44% | 1016.2 hPa | 0 mm | - | - | - |
| 1777500694 | 25° C | 43% | 1016.3 hPa | 0 mm | - | - | - |
| 1777500388 | 25° C | 42% | 1016.3 hPa | 0 mm | - | - | - |
| 1777497340 | 25.56° C | 43% | 1016.5 hPa | 0 mm | - | - | - |
| 1777495771 | 26.11° C | 43% | 1016.7 hPa | 0 mm | - | - | - |
| 1777494232 | 26.67° C | 45% | 1016.8 hPa | 0 mm | - | - | - |
| 1777493925 | 26.67° C | 45% | 1016.8 hPa | 0 mm | - | - | - |
| 1777493309 | 26.67° C | 43% | 1016.8 hPa | 0 mm | - | - | - |
| 1777493003 | 27.22° C | 43% | 1016.7 hPa | 0 mm | - | - | - |
| 1777492697 | 27.22° C | 43% | 1016.7 hPa | 0 mm | - | - | - |
| 1777492387 | 27.22° C | 43% | 1016.8 hPa | 0 mm | - | - | - |
| 1777491468 | 27.22° C | 43% | 1017 hPa | 0 mm | - | - | - |
| 1777491161 | 27.78° C | 42% | 1017 hPa | 0 mm | - | - | - |
| 1777490877 | 27.78° C | 43% | 1017 hPa | 0 mm | - | - | - |
| 1777490539 | 27.78° C | 43% | 1017.1 hPa | 0 mm | - | - | - |
| 1777490233 | 27.78° C | 43% | 1017.1 hPa | 0 mm | - | - | - |
| 1777489928 | 27.78° C | 43% | 1017.1 hPa | 0 mm | - | - | - |
| 1777489622 | 28.33° C | 43% | 1017.2 hPa | 0 mm | - | - | - |
| 1777489316 | 28.33° C | 42% | 1017.3 hPa | 0 mm | - | - | - |
| 1777489010 | 27.78° C | 41% | 1017.4 hPa | 0 mm | - | - | - |
| 1777482860 | 21.67° C | 52% | 1018.2 hPa | 0 mm | - | - | - |
| 1777481627 | 19.44° C | 55% | 1018.3 hPa | 0 mm | - | - | - |
| 1777481321 | 18.89° C | 58% | 1018.4 hPa | 0 mm | - | - | - |
| 1777481015 | 18.33° C | 60% | 1018.5 hPa | 0 mm | - | - | - |
| 1777480738 | 17.78° C | 60% | 1018.6 hPa | 0 mm | - | - | - |
* Rain latest hour (hover to see other rain measurements)
** Current wind speed in m/s (hover to see current wind gust speed)